sensor_id;sensor_type;location;lat;lon;timestamp;pressure;altitude;pressure_sealevel;temperature;humidity
71043;BME280;58696;52.134;5.500;2024-02-23T00:01:19;98635.56;;;4.70;72.67
71043;BME280;58696;52.134;5.500;2024-02-23T00:03:46;98619.31;;;4.71;72.64
71043;BME280;58696;52.134;5.500;2024-02-23T00:06:12;98627.72;;;4.71;72.66
71043;BME280;58696;52.134;5.500;2024-02-23T00:08:40;98628.31;;;4.73;72.66
71043;BME280;58696;52.134;5.500;2024-02-23T00:11:08;98633.78;;;4.77;72.68
71043;BME280;58696;52.134;5.500;2024-02-23T00:13:35;98630.44;;;4.83;72.69
71043;BME280;58696;52.134;5.500;2024-02-23T00:16:02;98638.25;;;4.88;72.70
71043;BME280;58696;52.134;5.500;2024-02-23T00:18:29;98635.31;;;4.91;72.68
71043;BME280;58696;52.134;5.500;2024-02-23T00:20:56;98638.84;;;4.97;72.70
71043;BME280;58696;52.134;5.500;2024-02-23T00:23:23;98647.44;;;5.03;72.70
71043;BME280;58696;52.134;5.500;2024-02-23T00:25:52;98649.59;;;5.06;72.70
71043;BME280;58696;52.134;5.500;2024-02-23T00:28:23;98648.00;;;5.05;72.71
71043;BME280;58696;52.134;5.500;2024-02-23T00:30:50;98651.53;;;5.04;72.71
71043;BME280;58696;52.134;5.500;2024-02-23T00:33:16;98665.06;;;5.04;72.71
71043;BME280;58696;52.134;5.500;2024-02-23T00:35:43;98666.44;;;5.07;72.70
71043;BME280;58696;52.134;5.500;2024-02-23T00:38:10;98661.72;;;5.10;72.71
71043;BME280;58696;52.134;5.500;2024-02-23T00:40:37;98657.00;;;5.14;72.67
71043;BME280;58696;52.134;5.500;2024-02-23T00:43:09;98662.28;;;5.19;72.73
71043;BME280;58696;52.134;5.500;2024-02-23T00:45:35;98668.53;;;5.23;72.69
71043;BME280;58696;52.134;5.500;2024-02-23T00:48:02;98669.69;;;5.27;72.73
71043;BME280;58696;52.134;5.500;2024-02-23T00:50:31;98673.63;;;5.30;72.73
71043;BME280;58696;52.134;5.500;2024-02-23T00:52:57;98675.56;;;5.34;72.74
71043;BME280;58696;52.134;5.500;2024-02-23T00:55:24;98686.72;;;5.40;72.71
71043;BME280;58696;52.134;5.500;2024-02-23T00:57:55;98684.56;;;5.37;72.71
71043;BME280;58696;52.134;5.500;2024-02-23T01:00:24;98695.16;;;5.34;72.73
71043;BME280;58696;52.134;5.500;2024-02-23T01:02:50;98696.31;;;5.31;72.72
71043;BME280;58696;52.134;5.500;2024-02-23T01:05:17;98697.88;;;5.32;72.73
71043;BME280;58696;52.134;5.500;2024-02-23T01:07:46;98700.63;;;5.31;72.71
71043;BME280;58696;52.134;5.500;2024-02-23T01:10:15;98699.06;;;5.30;72.71
71043;BME280;58696;52.134;5.500;2024-02-23T01:12:44;98719.66;;;5.28;72.71
71043;BME280;58696;52.134;5.500;2024-02-23T01:15:13;98714.75;;;5.26;72.71
71043;BME280;58696;52.134;5.500;2024-02-23T01:17:40;98729.47;;;5.18;72.71
71043;BME280;58696;52.134;5.500;2024-02-23T01:20:07;98730.44;;;5.10;72.71
71043;BME280;58696;52.134;5.500;2024-02-23T01:22:36;98731.44;;;5.03;72.69
71043;BME280;58696;52.134;5.500;2024-02-23T01:25:05;98743.00;;;4.98;72.70
71043;BME280;58696;52.134;5.500;2024-02-23T01:27:32;98735.75;;;4.95;72.69
71043;BME280;58696;52.134;5.500;2024-02-23T01:29:58;98732.25;;;4.90;72.69
71043;BME280;58696;52.134;5.500;2024-02-23T01:32:30;98745.34;;;4.80;72.69
71043;BME280;58696;52.134;5.500;2024-02-23T01:34:59;98747.13;;;4.73;72.64
71043;BME280;58696;52.134;5.500;2024-02-23T01:37:28;98745.16;;;4.68;72.62
71043;BME280;58696;52.134;5.500;2024-02-23T01:39:54;98755.13;;;4.63;72.64
71043;BME280;58696;52.134;5.500;2024-02-23T01:42:21;98781.16;;;4.65;72.64
71043;BME280;58696;52.134;5.500;2024-02-23T01:44:50;98774.31;;;4.72;72.66
71043;BME280;58696;52.134;5.500;2024-02-23T01:47:25;98759.06;;;4.79;72.66
71043;BME280;58696;52.134;5.500;2024-02-23T01:49:52;98751.81;;;4.83;72.66
71043;BME280;58696;52.134;5.500;2024-02-23T01:52:21;98753.56;;;4.82;72.66
71043;BME280;58696;52.134;5.500;2024-02-23T01:54:48;98767.28;;;4.81;72.68
71043;BME280;58696;52.134;5.500;2024-02-23T01:57:15;98767.28;;;4.81;72.68
71043;BME280;58696;52.134;5.500;2024-02-23T02:00:11;98783.53;;;4.87;72.68
71043;BME280;58696;52.134;5.500;2024-02-23T02:02:42;98786.28;;;4.92;72.68
71043;BME280;58696;52.134;5.500;2024-02-23T02:05:09;98788.22;;;4.96;72.67
71043;BME280;58696;52.134;5.500;2024-02-23T02:07:36;98782.38;;;4.96;72.69
71043;BME280;58696;52.134;5.500;2024-02-23T02:10:08;98782.38;;;4.96;72.70
71043;BME280;58696;52.134;5.500;2024-02-23T02:12:36;98796.25;;;4.93;72.68
71043;BME280;58696;52.134;5.500;2024-02-23T02:15:04;98796.66;;;4.90;72.69
71043;BME280;58696;52.134;5.500;2024-02-23T02:17:33;98789.19;;;4.89;72.65
71043;BME280;58696;52.134;5.500;2024-02-23T02:20:07;98792.72;;;4.88;72.67
71043;BME280;58696;52.134;5.500;2024-02-23T02:22:37;98799.00;;;4.85;72.69
71043;BME280;58696;52.134;5.500;2024-02-23T02:25:06;98798.00;;;4.80;72.66
71043;BME280;58696;52.134;5.500;2024-02-23T02:27:33;98799.00;;;4.79;72.66
71043;BME280;58696;52.134;5.500;2024-02-23T02:29:59;98799.16;;;4.77;72.67
71043;BME280;58696;52.134;5.500;2024-02-23T02:32:26;98800.56;;;4.73;72.67
71043;BME280;58696;52.134;5.500;2024-02-23T02:34:55;98798.38;;;4.70;72.68
71043;BME280;58696;52.134;5.500;2024-02-23T02:37:22;98805.44;;;4.68;72.67
71043;BME280;58696;52.134;5.500;2024-02-23T02:39:50;98803.47;;;4.70;72.67
71043;BME280;58696;52.134;5.500;2024-02-23T02:42:17;98797.00;;;4.67;72.67
71043;BME280;58696;52.134;5.500;2024-02-23T02:44:48;98799.53;;;4.67;72.63
71043;BME280;58696;52.134;5.500;2024-02-23T02:47:17;98804.47;;;4.62;72.67
71043;BME280;58696;52.134;5.500;2024-02-23T02:49:46;98803.47;;;4.63;72.63
71043;BME280;58696;52.134;5.500;2024-02-23T02:52:15;98815.00;;;4.66;72.66
71043;BME280;58696;52.134;5.500;2024-02-23T02:54:42;98814.03;;;4.67;72.67
71043;BME280;58696;52.134;5.500;2024-02-23T02:57:08;98812.09;;;4.62;72.64
71043;BME280;58696;52.134;5.500;2024-02-23T02:59:37;98818.53;;;4.58;72.63
71043;BME280;58696;52.134;5.500;2024-02-23T03:02:06;98810.28;;;4.56;72.62
71043;BME280;58696;52.134;5.500;2024-02-23T03:04:35;98806.19;;;4.55;72.65
71043;BME280;58696;52.134;5.500;2024-02-23T03:07:02;98804.81;;;4.53;72.61
71043;BME280;58696;52.134;5.500;2024-02-23T03:09:28;98813.59;;;4.50;72.61
71043;BME280;58696;52.134;5.500;2024-02-23T03:11:57;98815.97;;;4.52;72.63
71043;BME280;58696;52.134;5.500;2024-02-23T03:14:25;98821.44;;;4.48;72.64
71043;BME280;58696;52.134;5.500;2024-02-23T03:16:56;98825.34;;;4.44;72.63
71043;BME280;58696;52.134;5.500;2024-02-23T03:19:23;98825.16;;;4.46;72.61
71043;BME280;58696;52.134;5.500;2024-02-23T03:21:50;98834.16;;;4.48;72.63
71043;BME280;58696;52.134;5.500;2024-02-23T03:24:19;98837.69;;;4.47;72.64
71043;BME280;58696;52.134;5.500;2024-02-23T03:26:45;98838.81;;;4.45;72.63
71043;BME280;58696;52.134;5.500;2024-02-23T03:29:12;98837.47;;;4.42;72.62
71043;BME280;58696;52.134;5.500;2024-02-23T03:31:39;98837.47;;;4.42;72.64
71043;BME280;58696;52.134;5.500;2024-02-23T03:34:07;98842.56;;;4.42;72.66
71043;BME280;58696;52.134;5.500;2024-02-23T03:36:34;98829.06;;;4.42;72.62
71043;BME280;58696;52.134;5.500;2024-02-23T03:39:01;98840.00;;;4.42;72.65
71043;BME280;58696;52.134;5.500;2024-02-23T03:41:30;98837.06;;;4.45;72.62
71043;BME280;58696;52.134;5.500;2024-02-23T03:43:56;98852.72;;;4.42;72.63
71043;BME280;58696;52.134;5.500;2024-02-23T03:46:23;98855.25;;;4.36;72.64
71043;BME280;58696;52.134;5.500;2024-02-23T03:48:52;98854.84;;;4.32;72.61
71043;BME280;58696;52.134;5.500;2024-02-23T03:51:20;98862.25;;;4.27;72.58
71043;BME280;58696;52.134;5.500;2024-02-23T03:53:47;98875.34;;;4.24;72.58
71043;BME280;58696;52.134;5.500;2024-02-23T03:56:13;98866.75;;;4.25;72.61
71043;BME280;58696;52.134;5.500;2024-02-23T03:58:40;98873.41;;;4.33;72.63
71043;BME280;58696;52.134;5.500;2024-02-23T04:01:07;98867.34;;;4.34;72.63
71043;BME280;58696;52.134;5.500;2024-02-23T04:03:36;98858.72;;;4.28;72.60
71043;BME280;58696;52.134;5.500;2024-02-23T04:06:03;98873.00;;;4.29;72.64
71043;BME280;58696;52.134;5.500;2024-02-23T04:08:29;98871.06;;;4.31;72.64
71043;BME280;58696;52.134;5.500;2024-02-23T04:10:56;98872.81;;;4.24;72.62
71043;BME280;58696;52.134;5.500;2024-02-23T04:13:23;98875.13;;;4.19;72.63
71043;BME280;58696;52.134;5.500;2024-02-23T04:15:52;98879.81;;;4.15;72.63
71043;BME280;58696;52.134;5.500;2024-02-23T04:18:21;98877.47;;;4.14;72.62
71043;BME280;58696;52.134;5.500;2024-02-23T04:20:50;98864.13;;;4.12;72.61
71043;BME280;58696;52.134;5.500;2024-02-23T04:23:21;98871.16;;;4.10;72.61
71043;BME280;58696;52.134;5.500;2024-02-23T04:25:50;98884.47;;;4.12;72.60
71043;BME280;58696;52.134;5.500;2024-02-23T04:28:17;98883.72;;;4.18;72.63
71043;BME280;58696;52.134;5.500;2024-02-23T04:30:44;98898.59;;;4.21;72.61
71043;BME280;58696;52.134;5.500;2024-02-23T04:33:10;98894.09;;;4.23;72.61
71043;BME280;58696;52.134;5.500;2024-02-23T04:35:37;98897.44;;;4.23;72.63
71043;BME280;58696;52.134;5.500;2024-02-23T04:38:07;98900.59;;;4.26;72.62
71043;BME280;58696;52.134;5.500;2024-02-23T04:40:33;98897.06;;;4.27;72.61
71043;BME280;58696;52.134;5.500;2024-02-23T04:43:00;98901.13;;;4.21;72.61
71043;BME280;58696;52.134;5.500;2024-02-23T04:45:29;98900.56;;;4.19;72.62
71043;BME280;58696;52.134;5.500;2024-02-23T04:47:58;98910.53;;;4.20;72.61
71043;BME280;58696;52.134;5.500;2024-02-23T04:50:24;98918.34;;;4.19;72.61
71043;BME280;58696;52.134;5.500;2024-02-23T04:52:51;98915.22;;;4.23;72.62
71043;BME280;58696;52.134;5.500;2024-02-23T04:55:18;98915.63;;;4.27;72.61
71043;BME280;58696;52.134;5.500;2024-02-23T04:57:49;98912.53;;;4.32;72.62
71043;BME280;58696;52.134;5.500;2024-02-23T05:00:16;98917.03;;;4.30;72.63
71043;BME280;58696;52.134;5.500;2024-02-23T05:02:43;98927.59;;;4.33;72.63
71043;BME280;58696;52.134;5.500;2024-02-23T05:05:12;98916.28;;;4.36;72.65
71043;BME280;58696;52.134;5.500;2024-02-23T05:07:39;98918.44;;;4.39;72.65
71043;BME280;58696;52.134;5.500;2024-02-23T05:10:06;98914.53;;;4.36;72.65
71043;BME280;58696;52.134;5.500;2024-02-23T05:12:35;98914.69;;;4.35;72.63
71043;BME280;58696;52.134;5.500;2024-02-23T05:15:02;98910.22;;;4.37;72.63
71043;BME280;58696;52.134;5.500;2024-02-23T05:17:33;98925.28;;;4.38;72.64
71043;BME280;58696;52.134;5.500;2024-02-23T05:20:00;98906.50;;;4.39;72.63
71043;BME280;58696;52.134;5.500;2024-02-23T05:22:27;98918.66;;;4.44;72.65
71043;BME280;58696;52.134;5.500;2024-02-23T05:24:55;98911.63;;;4.46;72.65
71043;BME280;58696;52.134;5.500;2024-02-23T05:27:27;98910.66;;;4.47;72.65
71043;BME280;58696;52.134;5.500;2024-02-23T05:29:56;98909.47;;;4.49;72.67
71043;BME280;58696;52.134;5.500;2024-02-23T05:32:22;98914.19;;;4.53;72.65
71043;BME280;58696;52.134;5.500;2024-02-23T05:34:51;98908.91;;;4.54;72.65
71043;BME280;58696;52.134;5.500;2024-02-23T05:37:20;98923.81;;;4.57;72.65
71043;BME280;58696;52.134;5.500;2024-02-23T05:39:49;98925.56;;;4.57;72.65
71043;BME280;58696;52.134;5.500;2024-02-23T05:42:22;98920.09;;;4.60;72.66
71043;BME280;58696;52.134;5.500;2024-02-23T05:44:51;98920.88;;;4.60;72.66
71043;BME280;58696;52.134;5.500;2024-02-23T05:47:17;98925.19;;;4.60;72.66
71043;BME280;58696;52.134;5.500;2024-02-23T05:49:44;98919.88;;;4.61;72.66
71043;BME280;58696;52.134;5.500;2024-02-23T05:52:13;98920.66;;;4.62;72.67
71043;BME280;58696;52.134;5.500;2024-02-23T05:54:39;98912.25;;;4.61;72.67
71043;BME280;58696;52.134;5.500;2024-02-23T05:57:06;98921.25;;;4.57;72.66
71043;BME280;58696;52.134;5.500;2024-02-23T05:59:32;98920.66;;;4.55;72.66
71043;BME280;58696;52.134;5.500;2024-02-23T06:01:59;98919.28;;;4.53;72.66
71043;BME280;58696;52.134;5.500;2024-02-23T06:04:26;98921.44;;;4.56;72.65
71043;BME280;58696;52.134;5.500;2024-02-23T06:06:55;98923.03;;;4.57;72.66
71043;BME280;58696;52.134;5.500;2024-02-23T06:09:24;98928.69;;;4.59;72.66
71043;BME280;58696;52.134;5.500;2024-02-23T06:11:51;98931.66;;;4.62;72.66
71043;BME280;58696;52.134;5.500;2024-02-23T06:14:18;98921.09;;;4.65;72.68
71043;BME280;58696;52.134;5.500;2024-02-23T06:16:47;98920.88;;;4.67;72.67
71043;BME280;58696;52.134;5.500;2024-02-23T06:19:17;98915.63;;;4.68;72.66
71043;BME280;58696;52.134;5.500;2024-02-23T06:21:47;98913.66;;;4.70;72.68
71043;BME280;58696;52.134;5.500;2024-02-23T06:24:14;98927.38;;;4.69;72.69
71043;BME280;58696;52.134;5.500;2024-02-23T06:26:44;98935.41;;;4.73;72.67
71043;BME280;58696;52.134;5.500;2024-02-23T06:29:17;98931.28;;;4.72;72.68
71043;BME280;58696;52.134;5.500;2024-02-23T06:31:44;98925.03;;;4.74;72.67
71043;BME280;58696;52.134;5.500;2024-02-23T06:34:17;98927.59;;;4.74;72.66
71043;BME280;58696;52.134;5.500;2024-02-23T06:36:46;98933.66;;;4.80;72.68
71043;BME280;58696;52.134;5.500;2024-02-23T06:39:15;98936.00;;;4.82;72.68
71043;BME280;58696;52.134;5.500;2024-02-23T06:41:44;98932.31;;;4.84;72.69
71043;BME280;58696;52.134;5.500;2024-02-23T06:44:16;98941.50;;;4.85;72.69
71043;BME280;58696;52.134;5.500;2024-02-23T06:46:42;98942.88;;;4.88;72.68
71043;BME280;58696;52.134;5.500;2024-02-23T06:49:16;98940.16;;;4.89;72.69
71043;BME280;58696;52.134;5.500;2024-02-23T06:51:46;98945.84;;;4.91;72.69
71043;BME280;58696;52.134;5.500;2024-02-23T06:54:12;98931.16;;;4.93;72.69
71043;BME280;58696;52.134;5.500;2024-02-23T06:56:39;98941.94;;;4.95;72.69
71043;BME280;58696;52.134;5.500;2024-02-23T06:59:07;98935.66;;;4.98;72.69
71043;BME280;58696;52.134;5.500;2024-02-23T07:01:47;98934.88;;;4.97;72.70
71043;BME280;58696;52.134;5.500;2024-02-23T07:04:14;98932.13;;;4.99;72.69
71043;BME280;58696;52.134;5.500;2024-02-23T07:06:40;98931.00;;;5.01;72.70
71043;BME280;58696;52.134;5.500;2024-02-23T07:09:09;98934.31;;;5.02;72.70
71043;BME280;58696;52.134;5.500;2024-02-23T07:11:38;98934.31;;;5.02;72.70
71043;BME280;58696;52.134;5.500;2024-02-23T07:14:20;98933.91;;;5.05;72.71
71043;BME280;58696;52.134;5.500;2024-02-23T07:16:48;98928.66;;;5.07;72.69
71043;BME280;58696;52.134;5.500;2024-02-23T07:19:17;98941.38;;;5.07;72.69
71043;BME280;58696;52.134;5.500;2024-02-23T07:21:44;98934.91;;;5.11;72.71
71043;BME280;58696;52.134;5.500;2024-02-23T07:24:13;98939.63;;;5.14;72.72
71043;BME280;58696;52.134;5.500;2024-02-23T07:26:40;98937.28;;;5.19;72.73
71043;BME280;58696;52.134;5.500;2024-02-23T07:29:07;98930.22;;;5.21;72.72
71043;BME280;58696;52.134;5.500;2024-02-23T07:31:34;98934.16;;;5.23;72.71
71043;BME280;58696;52.134;5.500;2024-02-23T07:34:03;98924.56;;;5.25;72.73
71043;BME280;58696;52.134;5.500;2024-02-23T07:36:32;98938.47;;;5.30;72.73
71043;BME280;58696;52.134;5.500;2024-02-23T07:39:04;98926.94;;;5.34;72.73
71043;BME280;58696;52.134;5.500;2024-02-23T07:41:30;98921.06;;;5.33;72.73
71043;BME280;58696;52.134;5.500;2024-02-23T07:43:57;98928.09;;;5.31;72.74
71043;BME280;58696;52.134;5.500;2024-02-23T07:46:24;98923.41;;;5.35;72.73
71043;BME280;58696;52.134;5.500;2024-02-23T07:48:57;98914.56;;;5.37;72.72
71043;BME280;58696;52.134;5.500;2024-02-23T07:51:26;98917.50;;;5.47;72.73
71043;BME280;58696;52.134;5.500;2024-02-23T07:53:55;98920.06;;;5.54;72.74
71043;BME280;58696;52.134;5.500;2024-02-23T07:56:21;98922.22;;;5.57;72.74
71043;BME280;58696;52.134;5.500;2024-02-23T07:58:50;98905.56;;;5.61;72.74
71043;BME280;58696;52.134;5.500;2024-02-23T08:01:20;98903.19;;;5.60;72.74
71043;BME280;58696;52.134;5.500;2024-02-23T08:03:48;98911.25;;;5.57;72.75
71043;BME280;58696;52.134;5.500;2024-02-23T08:06:20;98914.78;;;5.56;72.75
71043;BME280;58696;52.134;5.500;2024-02-23T08:08:47;98914.19;;;5.53;72.74
71043;BME280;58696;52.134;5.500;2024-02-23T08:11:13;98912.63;;;5.52;72.73
71043;BME280;58696;52.134;5.500;2024-02-23T08:13:40;98905.56;;;5.54;72.74
71043;BME280;58696;52.134;5.500;2024-02-23T08:16:07;98898.50;;;5.57;72.75
71043;BME280;58696;52.134;5.500;2024-02-23T08:18:33;98903.59;;;5.57;72.76
71043;BME280;58696;52.134;5.500;2024-02-23T08:21:02;98899.88;;;5.59;72.76
71043;BME280;58696;52.134;5.500;2024-02-23T08:23:30;98898.69;;;5.68;72.77
71043;BME280;58696;52.134;5.500;2024-02-23T08:26:01;98895.94;;;5.76;72.78
71043;BME280;58696;52.134;5.500;2024-02-23T08:28:28;98894.19;;;5.77;72.75
71043;BME280;58696;52.134;5.500;2024-02-23T08:30:59;98891.03;;;5.75;72.77
71043;BME280;58696;52.134;5.500;2024-02-23T08:33:26;98904.19;;;5.72;72.77
71043;BME280;58696;52.134;5.500;2024-02-23T08:35:54;98903.78;;;5.68;72.74
71043;BME280;58696;52.134;5.500;2024-02-23T08:38:21;98900.47;;;5.68;72.75
71043;BME280;58696;52.134;5.500;2024-02-23T08:40:48;98896.94;;;5.69;72.76
71043;BME280;58696;52.134;5.500;2024-02-23T08:43:20;98888.13;;;5.71;72.76
71043;BME280;58696;52.134;5.500;2024-02-23T08:45:49;98886.16;;;5.73;72.75
71043;BME280;58696;52.134;5.500;2024-02-23T08:48:15;98886.34;;;5.72;72.76
71043;BME280;58696;52.134;5.500;2024-02-23T08:50:42;98881.44;;;5.70;72.75
71043;BME280;58696;52.134;5.500;2024-02-23T08:53:08;98873.78;;;5.70;72.75
71043;BME280;58696;52.134;5.500;2024-02-23T08:55:37;98873.78;;;5.70;72.75
71043;BME280;58696;52.134;5.500;2024-02-23T08:58:04;98875.75;;;5.68;72.74
71043;BME280;58696;52.134;5.500;2024-02-23T09:00:32;98878.31;;;5.68;72.75
71043;BME280;58696;52.134;5.500;2024-02-23T09:03:01;98883.59;;;5.67;72.75
71043;BME280;58696;52.134;5.500;2024-02-23T09:05:28;98891.25;;;5.67;72.75
71043;BME280;58696;52.134;5.500;2024-02-23T09:07:57;98878.50;;;5.67;72.76
71043;BME280;58696;52.134;5.500;2024-02-23T09:10:23;98879.09;;;5.69;72.76
71043;BME280;58696;52.134;5.500;2024-02-23T09:12:50;98876.94;;;5.72;72.76
71043;BME280;58696;52.134;5.500;2024-02-23T09:15:19;98874.75;;;5.76;72.76
71043;BME280;58696;52.134;5.500;2024-02-23T09:17:48;98889.06;;;5.84;72.77
71043;BME280;58696;52.134;5.500;2024-02-23T09:20:16;98897.28;;;5.86;72.77
71043;BME280;58696;52.134;5.500;2024-02-23T09:22:42;98902.03;;;5.82;72.79
71043;BME280;58696;52.134;5.500;2024-02-23T09:25:09;98895.75;;;5.78;72.77
71043;BME280;58696;52.134;5.500;2024-02-23T09:27:36;98896.13;;;5.75;72.78
71043;BME280;58696;52.134;5.500;2024-02-23T09:30:13;98896.13;;;5.75;72.77
71043;BME280;58696;52.134;5.500;2024-02-23T09:32:40;98897.53;;;5.77;72.77
71043;BME280;58696;52.134;5.500;2024-02-23T09:35:07;98895.34;;;5.81;72.78
71043;BME280;58696;52.134;5.500;2024-02-23T09:37:35;98896.13;;;5.88;72.78
71043;BME280;58696;52.134;5.500;2024-02-23T09:40:02;98894.38;;;5.95;72.78
71043;BME280;58696;52.134;5.500;2024-02-23T09:42:29;98891.63;;;5.97;72.79
71043;BME280;58696;52.134;5.500;2024-02-23T09:44:59;98898.09;;;5.99;72.79
71043;BME280;58696;52.134;5.500;2024-02-23T09:47:27;98899.28;;;6.03;72.79
71043;BME280;58696;52.134;5.500;2024-02-23T09:49:57;98909.84;;;6.07;72.79
71043;BME280;58696;52.134;5.500;2024-02-23T09:52:25;98901.81;;;6.10;72.79
71043;BME280;58696;52.134;5.500;2024-02-23T09:54:57;98917.88;;;6.11;72.78
71043;BME280;58696;52.134;5.500;2024-02-23T09:57:24;98918.69;;;6.04;72.78
71043;BME280;58696;52.134;5.500;2024-02-23T09:59:54;98926.31;;;5.98;72.78
71043;BME280;58696;52.134;5.500;2024-02-23T10:02:21;98924.38;;;5.93;72.76
71043;BME280;58696;52.134;5.500;2024-02-23T10:04:48;98925.16;;;5.87;72.78
71043;BME280;58696;52.134;5.500;2024-02-23T10:07:17;98927.91;;;5.92;72.75
71043;BME280;58696;52.134;5.500;2024-02-23T10:09:44;98927.31;;;6.03;72.79
71043;BME280;58696;52.134;5.500;2024-02-23T10:12:15;98934.72;;;6.18;72.80
71043;BME280;58696;52.134;5.500;2024-02-23T10:14:42;98919.41;;;6.31;72.76
71043;BME280;58696;52.134;5.500;2024-02-23T10:17:14;98936.25;;;6.39;72.81
71043;BME280;58696;52.134;5.500;2024-02-23T10:19:40;98933.91;;;6.38;72.82
71043;BME280;58696;52.134;5.500;2024-02-23T10:22:07;98933.69;;;6.39;72.81
71043;BME280;58696;52.134;5.500;2024-02-23T10:24:36;98935.22;;;6.47;72.82
71043;BME280;58696;52.134;5.500;2024-02-23T10:27:05;98918.75;;;6.49;72.82
71043;BME280;58696;52.134;5.500;2024-02-23T10:29:35;98936.63;;;6.43;72.82
71043;BME280;58696;52.134;5.500;2024-02-23T10:32:05;98939.75;;;6.45;72.82
71043;BME280;58696;52.134;5.500;2024-02-23T10:34:33;98940.31;;;6.53;72.82
71043;BME280;58696;52.134;5.500;2024-02-23T10:37:07;98947.97;;;6.53;72.83
71043;BME280;58696;52.134;5.500;2024-02-23T10:39:37;98949.97;;;6.45;72.82
71043;BME280;58696;52.134;5.500;2024-02-23T10:42:09;98954.31;;;6.38;72.82
71043;BME280;58696;52.134;5.500;2024-02-23T10:44:36;98955.69;;;6.33;72.82
71043;BME280;58696;52.134;5.500;2024-02-23T10:47:04;98963.34;;;6.27;72.81
71043;BME280;58696;52.134;5.500;2024-02-23T10:49:36;98967.06;;;6.24;72.82
71043;BME280;58696;52.134;5.500;2024-02-23T10:52:04;98978.47;;;6.22;72.80
71043;BME280;58696;52.134;5.500;2024-02-23T10:54:32;98978.47;;;6.22;72.80
71043;BME280;58696;52.134;5.500;2024-02-23T10:57:04;98976.13;;;6.20;72.81
71043;BME280;58696;52.134;5.500;2024-02-23T10:59:33;98977.69;;;6.28;72.81
71043;BME280;58696;52.134;5.500;2024-02-23T11:02:00;98978.81;;;6.45;72.83
71043;BME280;58696;52.134;5.500;2024-02-23T11:04:31;98973.69;;;6.58;72.84
71043;BME280;58696;52.134;5.500;2024-02-23T11:07:00;98976.59;;;6.69;72.84
71043;BME280;58696;52.134;5.500;2024-02-23T11:09:31;98978.31;;;6.81;72.86
71043;BME280;58696;52.134;5.500;2024-02-23T11:12:03;98980.13;;;7.06;72.88
71043;BME280;58696;52.134;5.500;2024-02-23T11:14:38;98973.19;;;7.20;72.89
71043;BME280;58696;52.134;5.500;2024-02-23T11:17:08;98978.06;;;7.28;72.89
71043;BME280;58696;52.134;5.500;2024-02-23T11:19:45;98983.91;;;7.35;72.91
71043;BME280;58696;52.134;5.500;2024-02-23T11:22:26;98962.19;;;7.51;72.91
71043;BME280;58696;52.134;5.500;2024-02-23T11:25:07;98975.59;;;7.71;72.92
71043;BME280;58696;52.134;5.500;2024-02-23T11:27:38;98979.47;;;7.80;72.93
71043;BME280;58696;52.134;5.500;2024-02-23T11:30:08;98980.69;;;7.71;72.92
71043;BME280;58696;52.134;5.500;2024-02-23T11:32:46;98977.53;;;7.76;72.93
71043;BME280;58696;52.134;5.500;2024-02-23T11:35:25;98975.91;;;7.81;72.92
71043;BME280;58696;52.134;5.500;2024-02-23T11:37:55;98982.47;;;7.71;72.89
71043;BME280;58696;52.134;5.500;2024-02-23T11:40:34;98964.75;;;7.76;72.92
71043;BME280;58696;52.134;5.500;2024-02-23T11:43:04;98971.69;;;7.69;72.93
71043;BME280;58696;52.134;5.500;2024-02-23T11:45:31;98979.97;;;7.64;72.91
71043;BME280;58696;52.134;5.500;2024-02-23T11:47:58;98991.19;;;7.63;72.92
71043;BME280;58696;52.134;5.500;2024-02-23T11:50:26;98995.16;;;7.59;72.90
71043;BME280;58696;52.134;5.500;2024-02-23T11:52:53;99002.78;;;7.65;72.92
71043;BME280;58696;52.134;5.500;2024-02-23T11:55:25;99003.31;;;7.74;72.93
71043;BME280;58696;52.134;5.500;2024-02-23T11:57:52;98998.34;;;7.79;72.93
71043;BME280;58696;52.134;5.500;2024-02-23T12:00:33;99004.47;;;7.78;72.92
71043;BME280;58696;52.134;5.500;2024-02-23T12:03:04;99006.66;;;7.75;72.92
71043;BME280;58696;52.134;5.500;2024-02-23T12:05:31;99004.88;;;7.75;72.94
71043;BME280;58696;52.134;5.500;2024-02-23T12:08:04;99005.09;;;7.74;72.94
71043;BME280;58696;52.134;5.500;2024-02-23T12:10:31;99005.66;;;7.76;72.94
71043;BME280;58696;52.134;5.500;2024-02-23T12:12:58;99001.59;;;7.68;72.94
71043;BME280;58696;52.134;5.500;2024-02-23T12:15:25;98998.09;;;7.62;72.92
71043;BME280;58696;52.134;5.500;2024-02-23T12:17:51;99010.28;;;7.60;72.93
71043;BME280;58696;52.134;5.500;2024-02-23T12:20:23;99014.66;;;7.53;72.93
71043;BME280;58696;52.134;5.500;2024-02-23T12:22:54;99010.13;;;7.55;72.92
71043;BME280;58696;52.134;5.500;2024-02-23T12:25:22;99006.59;;;7.56;72.87
71043;BME280;58696;52.134;5.500;2024-02-23T12:27:54;99011.22;;;7.66;72.92
71043;BME280;58696;52.134;5.500;2024-02-23T12:30:23;99004.53;;;7.65;72.88
71043;BME280;58696;52.134;5.500;2024-02-23T12:33:05;99004.50;;;7.72;72.91
71043;BME280;58696;52.134;5.500;2024-02-23T12:35:34;99004.09;;;7.75;72.92
71043;BME280;58696;52.134;5.500;2024-02-23T12:38:03;99008.03;;;7.71;72.90
71043;BME280;58696;52.134;5.500;2024-02-23T12:40:30;99013.94;;;7.71;72.91
71043;BME280;58696;52.134;5.500;2024-02-23T12:42:56;99019.03;;;7.78;72.93
71043;BME280;58696;52.134;5.500;2024-02-23T12:45:23;99012.28;;;7.83;72.92
71043;BME280;58696;52.134;5.500;2024-02-23T12:47:49;99012.41;;;7.95;72.93
71043;BME280;58696;52.134;5.500;2024-02-23T12:50:18;99026.69;;;8.03;72.92
71043;BME280;58696;52.134;5.500;2024-02-23T12:52:45;99022.00;;;8.00;72.90
71043;BME280;58696;52.134;5.500;2024-02-23T12:55:13;99029.47;;;8.01;72.94
71043;BME280;58696;52.134;5.500;2024-02-23T12:57:39;99030.63;;;8.05;72.94
71043;BME280;58696;52.134;5.500;2024-02-23T13:00:09;99036.56;;;7.99;72.91
71043;BME280;58696;52.134;5.500;2024-02-23T13:02:38;99032.84;;;7.95;72.93
71043;BME280;58696;52.134;5.500;2024-02-23T13:05:05;99031.03;;;8.02;72.94
71043;BME280;58696;52.134;5.500;2024-02-23T13:07:31;99041.19;;;8.09;72.94
71043;BME280;58696;52.134;5.500;2024-02-23T13:10:01;99040.16;;;8.16;72.95
71043;BME280;58696;52.134;5.500;2024-02-23T13:12:27;99044.00;;;8.26;72.96
71043;BME280;58696;52.134;5.500;2024-02-23T13:14:54;99048.16;;;8.27;72.97
71043;BME280;58696;52.134;5.500;2024-02-23T13:17:28;99041.44;;;8.26;72.96